Time;durP1;ratioP1;P1;durP2;ratioP2;P2;SDS_P1;SDS_P2;PMS_P1;PMS_P2;Temp;Humidity;BMP_temperature;BMP_pressure;BME280_temperature;BME280_humidity;BME280_pressure;Samples;Min_cycle;Max_cycle;Signal;HPM_P1;HPM_P2
2021/10/31 00:00:26;;;;;;;52.75;38.75;;;10.90;90.10;;;;;;2090658;28;20037;-71
2021/10/31 00:01:27;;;;;;;54.20;38.85;;;10.80;90.20;;;;;;2092159;28;20436;-72
2021/10/31 00:02:28;;;;;;;53.00;38.33;;;10.80;90.20;;;;;;2090695;28;20017;-72
2021/10/31 00:03:29;;;;;;;53.15;38.42;;;10.80;90.30;;;;;;2089710;28;20091;-71
2021/10/31 00:04:29;;;;;;;53.92;38.65;;;10.80;90.40;;;;;;2089566;28;20032;-71
2021/10/31 00:05:30;;;;;;;56.75;39.10;;;10.80;90.30;;;;;;2089480;28;20028;-71
2021/10/31 00:06:31;;;;;;;58.83;39.53;;;10.80;90.30;;;;;;2089922;28;20036;-72
2021/10/31 00:07:31;;;;;;;54.03;38.75;;;10.80;90.20;;;;;;2089687;28;20029;-72
2021/10/31 00:08:32;;;;;;;52.40;37.78;;;10.90;90.00;;;;;;2089592;28;20473;-72
2021/10/31 00:09:33;;;;;;;55.75;39.53;;;10.80;90.00;;;;;;2089654;28;20029;-72
2021/10/31 00:10:33;;;;;;;56.22;38.53;;;10.80;90.00;;;;;;2090477;28;20090;-71
2021/10/31 00:11:35;;;;;;;55.25;39.17;;;10.90;90.00;;;;;;2089162;28;20059;-71
2021/10/31 00:12:36;;;;;;;55.78;38.53;;;10.90;90.00;;;;;;2090132;28;20025;-71
2021/10/31 00:13:36;;;;;;;52.75;38.28;;;10.90;89.90;;;;;;2090527;28;20512;-71
2021/10/31 00:14:37;;;;;;;51.33;37.30;;;10.80;90.00;;;;;;2090389;28;20807;-73
2021/10/31 00:15:38;;;;;;;54.38;38.60;;;10.80;90.00;;;;;;2089669;28;20033;-72
2021/10/31 00:16:38;;;;;;;55.00;37.90;;;10.80;90.20;;;;;;2089662;28;20100;-72
2021/10/31 00:17:39;;;;;;;56.55;38.90;;;10.70;90.20;;;;;;2089079;28;20025;-71
2021/10/31 00:18:39;;;;;;;55.15;38.13;;;10.80;90.20;;;;;;2088690;28;20529;-70
2021/10/31 00:19:40;;;;;;;54.47;37.92;;;10.70;90.30;;;;;;2088707;28;20029;-71
2021/10/31 00:20:41;;;;;;;57.08;38.30;;;10.70;90.40;;;;;;2088997;28;20031;-71
2021/10/31 00:21:41;;;;;;;52.35;37.67;;;10.60;90.40;;;;;;2089228;28;20013;-71
2021/10/31 00:22:44;;;;;;;53.47;38.75;;;10.60;90.40;;;;;;2089935;28;20021;-71
2021/10/31 00:23:45;;;;;;;54.53;38.78;;;10.60;90.50;;;;;;2090389;28;20067;-72
2021/10/31 00:24:46;;;;;;;52.30;37.33;;;10.60;90.50;;;;;;2090575;28;20051;-72
2021/10/31 00:25:46;;;;;;;55.28;38.22;;;10.60;90.60;;;;;;2090495;28;20021;-72
2021/10/31 00:26:48;;;;;;;54.95;37.67;;;10.60;90.60;;;;;;2091858;28;20075;-73
2021/10/31 00:27:48;;;;;;;54.85;38.40;;;10.60;90.60;;;;;;2090654;28;20400;-72
2021/10/31 00:28:49;;;;;;;55.38;38.67;;;10.60;90.70;;;;;;2090886;28;20028;-73
2021/10/31 00:29:50;;;;;;;51.15;37.42;;;10.60;90.70;;;;;;2090801;28;20066;-73
2021/10/31 00:30:51;;;;;;;51.45;37.50;;;10.50;90.80;;;;;;2090432;28;20179;-72
2021/10/31 00:31:52;;;;;;;52.92;37.10;;;10.50;90.80;;;;;;2089346;28;20122;-73
2021/10/31 00:32:53;;;;;;;54.08;38.08;;;10.50;90.90;;;;;;2089602;28;20029;-73
2021/10/31 00:33:53;;;;;;;54.67;37.83;;;10.50;90.90;;;;;;2089767;28;20029;-72
2021/10/31 00:34:55;;;;;;;54.85;37.88;;;10.50;90.90;;;;;;2089523;28;20067;-73
2021/10/31 00:35:55;;;;;;;54.63;38.53;;;10.50;90.90;;;;;;2089252;28;20048;-72
2021/10/31 00:36:56;;;;;;;50.08;36.70;;;10.50;90.90;;;;;;2089530;28;20035;-72
2021/10/31 00:37:56;;;;;;;53.38;38.20;;;10.50;91.00;;;;;;2089564;28;20075;-72
2021/10/31 00:38:57;;;;;;;55.55;37.85;;;10.50;91.00;;;;;;2089403;28;20036;-73
2021/10/31 00:39:57;;;;;;;54.88;38.40;;;10.50;91.00;;;;;;2088770;28;20063;-72
2021/10/31 00:40:58;;;;;;;52.22;37.90;;;10.50;91.10;;;;;;2089646;28;20024;-74
2021/10/31 00:41:59;;;;;;;53.05;37.65;;;10.50;91.10;;;;;;2089325;28;20669;-72
2021/10/31 00:43:00;;;;;;;52.75;37.90;;;10.50;91.10;;;;;;2089923;28;20029;-73
2021/10/31 00:44:00;;;;;;;54.17;38.30;;;10.50;91.10;;;;;;2090136;28;20079;-73
2021/10/31 00:45:01;;;;;;;52.67;37.85;;;10.50;91.10;;;;;;2090030;28;20052;-72
2021/10/31 00:46:02;;;;;;;53.65;37.92;;;10.40;91.10;;;;;;2089954;28;20032;-73
2021/10/31 00:47:03;;;;;;;53.40;37.55;;;10.40;91.20;;;;;;2090084;28;20040;-73
2021/10/31 00:48:04;;;;;;;54.55;37.40;;;10.40;91.20;;;;;;2090045;28;20021;-73
2021/10/31 00:49:05;;;;;;;54.38;39.17;;;10.40;91.30;;;;;;2089986;28;20475;-72
2021/10/31 00:50:06;;;;;;;56.55;38.95;;;10.40;91.40;;;;;;2089406;28;20140;-72
2021/10/31 00:51:07;;;;;;;52.40;37.58;;;10.40;91.40;;;;;;2091635;28;20071;-72
2021/10/31 00:52:10;;;;;;;58.53;40.03;;;10.40;91.50;;;;;;2090729;28;20041;-73
2021/10/31 00:53:11;;;;;;;55.70;39.05;;;10.40;91.50;;;;;;2090489;28;20025;-72
2021/10/31 00:54:12;;;;;;;54.92;37.90;;;10.40;91.50;;;;;;2091335;28;20053;-71
2021/10/31 00:55:15;;;;;;;55.40;38.80;;;10.40;91.50;;;;;;2089875;28;20115;-71
2021/10/31 00:56:16;;;;;;;54.53;38.70;;;10.40;91.60;;;;;;2088686;28;20036;-71
2021/10/31 00:57:17;;;;;;;53.78;38.65;;;10.40;91.60;;;;;;2088756;28;20060;-72
2021/10/31 00:58:18;;;;;;;58.35;39.78;;;10.40;91.70;;;;;;2089382;28;20033;-72
2021/10/31 00:59:19;;;;;;;55.80;38.83;;;10.40;91.60;;;;;;2088213;28;20028;-72
2021/10/31 01:00:19;;;;;;;54.40;38.88;;;10.40;91.80;;;;;;2088770;28;20151;-71
2021/10/31 01:01:20;;;;;;;53.97;38.78;;;10.30;91.80;;;;;;2088980;28;20107;-72
2021/10/31 01:02:21;;;;;;;56.13;39.40;;;10.30;92.10;;;;;;2089397;28;20029;-72
2021/10/31 01:03:22;;;;;;;54.38;39.13;;;10.30;91.80;;;;;;2089198;28;20492;-72
2021/10/31 01:04:23;;;;;;;57.60;38.53;;;10.40;91.80;;;;;;2089672;28;20056;-72
2021/10/31 01:05:30;;;;;;;61.47;39.85;;;10.30;91.90;;;;;;2080551;28;20029;-72
2021/10/31 01:06:52;;;;;;;57.05;39.25;;;10.40;92.00;;;;;;2081686;28;20022;-72
2021/10/31 01:08:14;;;;;;;60.40;39.15;;;10.30;92.00;;;;;;2089685;28;20036;-71
2021/10/31 01:09:33;;;;;;;55.55;38.80;;;10.30;92.10;;;;;;2080104;28;20075;-71
2021/10/31 01:10:53;;;;;;;55.20;38.60;;;10.30;92.10;;;;;;2083300;28;20486;-71
2021/10/31 01:12:11;;;;;;;56.00;40.22;;;10.30;92.20;;;;;;2089245;28;20035;-71
2021/10/31 01:13:26;;;;;;;58.00;39.55;;;10.30;92.40;;;;;;2089053;28;20033;-72
2021/10/31 01:15:03;;;;;;;56.15;38.90;;;10.20;92.40;;;;;;2088846;28;20029;-72
2021/10/31 01:16:19;;;;;;;58.17;40.17;;;10.20;92.50;;;;;;2088676;28;20037;-71
2021/10/31 01:17:54;;;;;;;58.25;40.00;;;10.20;92.70;;;;;;2088736;28;20886;-71
2021/10/31 01:18:57;;;;;;;59.42;40.25;;;10.20;92.90;;;;;;2079718;28;20049;-71
2021/10/31 01:20:45;;;;;;;57.63;40.38;;;10.10;92.90;;;;;;2088036;28;20048;-71
2021/10/31 01:22:22;;;;;;;59.05;40.60;;;10.10;92.90;;;;;;2082030;28;20051;-72
2021/10/31 01:23:50;;;;;;;57.55;40.38;;;10.10;92.90;;;;;;2088571;28;20021;-71
2021/10/31 01:25:21;;;;;;;60.75;41.15;;;10.10;93.00;;;;;;2088324;28;20040;-71
2021/10/31 01:26:36;;;;;;;61.25;41.78;;;10.10;93.50;;;;;;2088680;28;20086;-71
2021/10/31 01:27:56;;;;;;;58.97;40.83;;;10.10;93.30;;;;;;2088993;28;20029;-71
2021/10/31 01:29:38;;;;;;;54.60;39.38;;;10.10;93.30;;;;;;2088982;28;20144;-72
2021/10/31 01:30:51;;;;;;;60.47;40.80;;;10.00;93.50;;;;;;2088802;28;20033;-71
2021/10/31 01:32:24;;;;;;;60.28;41.95;;;10.00;93.60;;;;;;2088525;28;20032;-71
2021/10/31 01:33:52;;;;;;;59.13;39.50;;;10.00;93.60;;;;;;2089191;28;20028;-72
2021/10/31 01:35:07;;;;;;;58.20;41.17;;;10.00;93.70;;;;;;2088430;28;20029;-73
2021/10/31 01:36:22;;;;;;;56.15;40.10;;;10.00;93.80;;;;;;2088858;28;20100;-72
2021/10/31 01:37:29;;;;;;;58.90;41.00;;;10.00;93.80;;;;;;2088929;28;20049;-72
2021/10/31 01:38:49;;;;;;;61.58;42.28;;;10.00;93.80;;;;;;2088751;28;20037;-72
2021/10/31 01:40:05;;;;;;;55.80;40.40;;;10.00;93.90;;;;;;2087318;28;20040;-71
2021/10/31 01:41:18;;;;;;;63.13;43.13;;;9.90;93.90;;;;;;2088354;28;20029;-71
2021/10/31 01:42:31;;;;;;;60.45;41.03;;;9.90;94.20;;;;;;2088286;28;20029;-72
2021/10/31 01:43:50;;;;;;;54.05;39.15;;;9.90;94.30;;;;;;2088925;28;20112;-72
2021/10/31 01:45:00;;;;;;;61.13;42.70;;;9.80;94.40;;;;;;2088409;28;20021;-72
2021/10/31 01:46:27;;;;;;;58.58;41.17;;;9.80;94.60;;;;;;2087283;28;20029;-71
2021/10/31 01:47:46;;;;;;;59.75;41.63;;;9.80;94.70;;;;;;2088594;28;20468;-71
2021/10/31 01:49:01;;;;;;;58.10;40.80;;;9.80;94.80;;;;;;2088757;28;20021;-72
2021/10/31 01:50:34;;;;;;;61.65;42.22;;;9.80;94.80;;;;;;2088170;28;20043;-71
2021/10/31 01:51:43;;;;;;;64.82;42.97;;;9.80;95.00;;;;;;2087897;28;20033;-72
2021/10/31 01:52:53;;;;;;;62.03;43.92;;;9.80;95.00;;;;;;2088320;28;20029;-71
2021/10/31 01:53:57;;;;;;;58.97;41.70;;;9.80;95.10;;;;;;2089125;28;20029;-71
2021/10/31 01:55:07;;;;;;;61.10;42.72;;;9.80;95.10;;;;;;2089065;28;20032;-71
2021/10/31 01:56:10;;;;;;;62.00;41.92;;;9.80;95.10;;;;;;2089250;28;20094;-71
2021/10/31 01:57:17;;;;;;;61.75;43.40;;;9.80;95.30;;;;;;2089072;28;20112;-71
2021/10/31 01:58:20;;;;;;;60.95;42.70;;;9.80;95.40;;;;;;2089080;28;20021;-71
2021/10/31 01:59:27;;;;;;;59.35;41.25;;;9.80;95.40;;;;;;2087766;28;20042;-71
2021/10/31 02:00:29;;;;;;;61.97;41.70;;;9.80;95.40;;;;;;2088601;28;20064;-72
2021/10/31 02:01:34;;;;;;;62.35;42.90;;;9.70;95.50;;;;;;2088109;28;20061;-72
2021/10/31 02:02:40;;;;;;;60.38;42.35;;;9.70;95.60;;;;;;2088965;28;20033;-73
2021/10/31 02:03:42;;;;;;;60.90;43.10;;;9.70;95.60;;;;;;2089087;28;20036;-72
2021/10/31 02:04:49;;;;;;;64.00;43.72;;;9.70;95.70;;;;;;2089044;28;20021;-72
2021/10/31 02:05:52;;;;;;;61.47;42.35;;;9.70;95.80;;;;;;2089004;28;20029;-72
2021/10/31 02:06:56;;;;;;;58.17;42.05;;;9.70;95.90;;;;;;2089115;28;20064;-72
2021/10/31 02:08:05;;;;;;;64.00;45.20;;;9.70;96.20;;;;;;2089031;28;20024;-72
2021/10/31 02:09:06;;;;;;;61.13;43.58;;;9.70;96.00;;;;;;2089081;28;20040;-72
2021/10/31 02:10:09;;;;;;;60.08;43.45;;;9.70;96.00;;;;;;2088650;28;20489;-72
2021/10/31 02:11:11;;;;;;;59.50;41.50;;;9.70;96.00;;;;;;2088884;28;20044;-72
2021/10/31 02:12:16;;;;;;;61.92;43.08;;;9.60;96.00;;;;;;2089057;28;20040;-72
2021/10/31 02:13:18;;;;;;;63.83;43.42;;;9.70;96.20;;;;;;2089234;28;20036;-71
2021/10/31 02:14:20;;;;;;;65.03;44.83;;;9.60;96.30;;;;;;2088821;28;20554;-72
2021/10/31 02:15:23;;;;;;;68.32;46.42;;;9.60;96.40;;;;;;2088144;28;20061;-72
2021/10/31 02:16:23;;;;;;;61.35;44.45;;;9.70;96.40;;;;;;2088173;28;20110;-72
2021/10/31 02:17:25;;;;;;;64.50;45.38;;;9.70;96.40;;;;;;2088748;28;20182;-72
2021/10/31 02:18:26;;;;;;;65.15;46.20;;;9.70;96.40;;;;;;2088702;28;20847;-72
2021/10/31 02:19:37;;;;;;;61.40;44.50;;;9.70;96.30;;;;;;2088365;28;20037;-71
2021/10/31 02:20:43;;;;;;;69.72;46.15;;;9.80;96.30;;;;;;2088742;28;20140;-72
2021/10/31 02:21:47;;;;;;;64.13;45.63;;;9.80;96.30;;;;;;2088677;28;20025;-72
2021/10/31 02:23:06;;;;;;;67.93;45.35;;;9.80;96.30;;;;;;2089076;28;20057;-72
2021/10/31 02:24:08;;;;;;;67.07;45.63;;;9.80;96.20;;;;;;2088877;28;20396;-73
2021/10/31 02:25:09;;;;;;;66.45;45.70;;;9.90;96.20;;;;;;2088832;28;20083;-72
2021/10/31 02:26:11;;;;;;;65.22;44.35;;;9.90;96.10;;;;;;2088886;28;20432;-72
2021/10/31 02:27:23;;;;;;;64.60;45.25;;;9.90;96.00;;;;;;2088843;28;20040;-72
2021/10/31 02:28:24;;;;;;;65.50;45.65;;;10.00;96.00;;;;;;2089010;28;20025;-72
2021/10/31 02:29:25;;;;;;;65.35;46.10;;;10.00;95.90;;;;;;2088374;28;20036;-71
2021/10/31 02:30:26;;;;;;;68.10;46.38;;;10.00;95.70;;;;;;2088844;28;20057;-71
2021/10/31 02:31:27;;;;;;;66.25;47.13;;;10.10;95.70;;;;;;2088607;28;20431;-71
2021/10/31 02:32:31;;;;;;;67.35;46.42;;;10.10;95.70;;;;;;2088909;28;20028;-72
2021/10/31 02:33:31;;;;;;;64.20;45.67;;;10.10;95.70;;;;;;2088603;28;20032;-71
2021/10/31 02:34:32;;;;;;;66.63;46.55;;;10.10;95.50;;;;;;2088307;28;20541;-71
2021/10/31 02:35:33;;;;;;;70.22;45.55;;;10.20;95.40;;;;;;2089764;28;20496;-71
2021/10/31 02:36:35;;;;;;;64.75;45.83;;;10.20;95.40;;;;;;2090444;28;20040;-72
2021/10/31 02:37:39;;;;;;;64.28;45.75;;;10.20;95.40;;;;;;2090649;28;20071;-71
2021/10/31 02:38:40;;;;;;;64.85;44.90;;;10.20;95.40;;;;;;2090491;28;20029;-72
2021/10/31 02:39:41;;;;;;;64.88;46.45;;;10.20;95.40;;;;;;2089426;28;20496;-72
2021/10/31 02:40:41;;;;;;;61.33;45.30;;;10.30;95.30;;;;;;2089855;28;20024;-72
2021/10/31 02:41:42;;;;;;;69.40;46.40;;;10.20;95.30;;;;;;2090214;28;20083;-72
2021/10/31 02:42:43;;;;;;;63.78;45.15;;;10.30;95.20;;;;;;2090311;28;20481;-72
2021/10/31 02:43:44;;;;;;;64.22;45.42;;;10.30;95.20;;;;;;2090461;28;20071;-72
2021/10/31 02:44:44;;;;;;;67.80;46.83;;;10.30;95.20;;;;;;2090508;28;20025;-72
2021/10/31 02:45:45;;;;;;;64.47;46.08;;;10.30;95.50;;;;;;2090313;28;20017;-72
2021/10/31 02:46:46;;;;;;;65.43;47.03;;;10.30;95.20;;;;;;2089757;28;20400;-72
2021/10/31 02:47:56;;;;;;;66.40;47.45;;;10.30;95.20;;;;;;2089667;28;20606;-72
2021/10/31 02:48:57;;;;;;;69.70;46.38;;;10.30;95.20;;;;;;2089849;28;20438;-72
2021/10/31 02:49:58;;;;;;;68.38;47.42;;;10.30;95.20;;;;;;2090026;28;20170;-72
2021/10/31 02:51:09;;;;;;;67.63;46.45;;;10.30;95.40;;;;;;2090121;28;20040;-72
2021/10/31 02:52:15;;;;;;;;;;;10.30;95.10;;;;;;2090185;28;20029;-72
2021/10/31 02:53:44;;;;;;;70.60;46.65;;;10.30;95.10;;;;;;2089779;28;19958;-71
2021/10/31 02:54:59;;;;;;;71.50;47.20;;;10.30;95.10;;;;;;2090595;28;20048;-72
2021/10/31 02:56:25;;;;;;;67.00;46.45;;;10.30;95.30;;;;;;2090371;28;20040;-72
2021/10/31 02:57:37;;;;;;;70.30;47.78;;;10.30;95.40;;;;;;2090381;28;20040;-72
2021/10/31 02:58:55;;;;;;;69.22;47.60;;;10.20;95.50;;;;;;2090325;28;20067;-72
2021/10/31 03:00:04;;;;;;;67.13;47.83;;;10.20;95.60;;;;;;2089943;28;20033;-72
2021/10/31 03:01:06;;;;;;;70.88;47.47;;;10.10;95.70;;;;;;2090308;28;20507;-73
2021/10/31 03:02:09;;;;;;;69.65;48.08;;;10.10;95.70;;;;;;2090124;28;20021;-72
2021/10/31 03:03:12;;;;;;;69.15;48.25;;;10.10;95.90;;;;;;2089669;28;20392;-72
2021/10/31 03:04:14;;;;;;;66.65;47.88;;;10.10;95.90;;;;;;2089947;28;20044;-71
2021/10/31 03:05:15;;;;;;;68.35;48.55;;;10.10;96.00;;;;;;2090363;28;20449;-71
2021/10/31 03:06:20;;;;;;;69.47;47.85;;;10.10;96.00;;;;;;2089949;28;20047;-71
2021/10/31 03:07:22;;;;;;;70.45;48.67;;;10.10;96.10;;;;;;2090010;28;20412;-72
2021/10/31 03:08:24;;;;;;;67.70;47.85;;;10.00;96.10;;;;;;2089782;28;20545;-71
2021/10/31 03:09:24;;;;;;;67.00;48.35;;;10.00;96.10;;;;;;2089551;28;20033;-71
2021/10/31 03:10:26;;;;;;;67.03;47.30;;;10.10;96.10;;;;;;2089720;28;20040;-71
2021/10/31 03:11:27;;;;;;;71.90;47.85;;;10.10;96.10;;;;;;2089476;28;20024;-71
2021/10/31 03:12:27;;;;;;;65.88;47.08;;;10.10;96.20;;;;;;2081484;28;20029;-71
2021/10/31 03:13:29;;;;;;;66.18;48.00;;;10.10;96.20;;;;;;2081474;28;20455;-71
2021/10/31 03:14:29;;;;;;;70.25;50.03;;;10.00;96.30;;;;;;2089760;28;20037;-72
2021/10/31 03:15:30;;;;;;;71.88;49.45;;;10.00;96.40;;;;;;2090121;28;20044;-72
2021/10/31 03:16:34;;;;;;;69.25;49.53;;;10.10;96.30;;;;;;2089892;28;20036;-71
2021/10/31 03:17:34;;;;;;;69.72;48.40;;;10.10;96.60;;;;;;2090553;28;20033;-71
2021/10/31 03:18:36;;;;;;;72.32;50.13;;;10.10;96.60;;;;;;2090406;28;20057;-71
2021/10/31 03:19:37;;;;;;;70.47;49.53;;;10.10;96.60;;;;;;2090152;28;20107;-71
2021/10/31 03:20:38;;;;;;;70.10;48.63;;;10.10;96.60;;;;;;2090543;28;20021;-71
2021/10/31 03:21:38;;;;;;;68.60;50.05;;;10.10;96.60;;;;;;2090273;28;20029;-72
2021/10/31 03:22:39;;;;;;;71.80;50.05;;;10.10;96.50;;;;;;2090517;28;20341;-71
2021/10/31 03:23:40;;;;;;;70.72;50.10;;;10.10;96.40;;;;;;2090194;28;20025;-71
2021/10/31 03:24:41;;;;;;;70.18;49.67;;;10.10;96.30;;;;;;2090509;28;20025;-71
2021/10/31 03:25:41;;;;;;;70.38;48.58;;;10.10;96.30;;;;;;2090309;28;20629;-71
2021/10/31 03:26:42;;;;;;;71.47;49.55;;;10.10;96.40;;;;;;2090468;28;20098;-72
2021/10/31 03:27:42;;;;;;;68.85;48.03;;;10.20;96.30;;;;;;2090430;28;20021;-71
2021/10/31 03:28:43;;;;;;;69.03;50.05;;;10.20;96.30;;;;;;2090695;28;20059;-71
2021/10/31 03:29:43;;;;;;;70.97;49.97;;;10.10;96.30;;;;;;2091502;28;20024;-71
2021/10/31 03:30:44;;;;;;;72.82;50.67;;;10.20;96.20;;;;;;2091781;28;20445;-70
2021/10/31 03:31:45;;;;;;;68.68;49.90;;;10.20;96.10;;;;;;2092092;28;20492;-70
2021/10/31 03:32:46;;;;;;;70.82;50.88;;;10.20;96.10;;;;;;2091712;28;20027;-72
2021/10/31 03:33:46;;;;;;;69.32;50.03;;;10.20;96.10;;;;;;2091934;28;20029;-71
2021/10/31 03:34:48;;;;;;;69.13;49.40;;;10.20;96.10;;;;;;2092403;28;20013;-71
2021/10/31 03:35:51;;;;;;;68.65;49.05;;;10.20;96.30;;;;;;2091142;28;20029;-70
2021/10/31 03:36:51;;;;;;;67.30;48.60;;;10.20;96.20;;;;;;2090998;28;20392;-71
2021/10/31 03:37:52;;;;;;;75.00;51.38;;;10.20;96.20;;;;;;2090417;28;20056;-71
2021/10/31 03:38:53;;;;;;;71.43;50.55;;;10.20;96.40;;;;;;2089266;28;20037;-71
2021/10/31 03:39:53;;;;;;;70.22;50.88;;;10.10;96.50;;;;;;2089574;28;20227;-71
2021/10/31 03:40:54;;;;;;;76.55;51.25;;;10.10;96.40;;;;;;2089949;28;20104;-71
2021/10/31 03:41:55;;;;;;;73.90;51.67;;;10.10;96.50;;;;;;2088848;28;20063;-71
2021/10/31 03:42:55;;;;;;;74.60;52.05;;;10.10;96.50;;;;;;2089381;28;20566;-71
2021/10/31 03:43:56;;;;;;;75.38;51.65;;;10.10;96.70;;;;;;2089985;28;20550;-71
2021/10/31 03:44:58;;;;;;;70.38;50.63;;;10.10;96.80;;;;;;2090277;28;20021;-71
2021/10/31 03:45:58;;;;;;;74.45;51.55;;;10.00;96.80;;;;;;2089696;28;20471;-71
2021/10/31 03:46:59;;;;;;;71.75;50.50;;;10.00;96.90;;;;;;2089024;28;20037;-71
2021/10/31 03:48:01;;;;;;;71.82;50.97;;;10.00;97.00;;;;;;2089959;28;20362;-70
2021/10/31 03:49:02;;;;;;;76.47;52.95;;;10.00;97.10;;;;;;2089863;28;20043;-71
2021/10/31 03:50:03;;;;;;;75.55;51.92;;;10.00;97.20;;;;;;2089369;28;20035;-70
2021/10/31 03:51:04;;;;;;;73.78;50.50;;;10.00;97.30;;;;;;2089665;28;20466;-71
2021/10/31 03:52:05;;;;;;;73.68;50.50;;;10.00;97.10;;;;;;2089736;28;20037;-70
2021/10/31 03:53:06;;;;;;;73.80;52.25;;;10.00;97.20;;;;;;2089639;28;20055;-71
2021/10/31 03:54:06;;;;;;;73.78;52.30;;;10.10;97.30;;;;;;2089795;28;20064;-70
2021/10/31 03:55:08;;;;;;;70.78;50.83;;;10.10;97.10;;;;;;2089864;28;20033;-71
2021/10/31 03:56:08;;;;;;;72.15;50.42;;;10.10;97.20;;;;;;2089015;28;20048;-70
2021/10/31 03:57:10;;;;;;;72.97;51.47;;;10.10;97.20;;;;;;2080831;28;20041;-70
2021/10/31 03:58:11;;;;;;;74.00;51.67;;;10.10;97.20;;;;;;2089157;28;20067;-71
2021/10/31 03:59:11;;;;;;;72.90;51.50;;;10.10;97.30;;;;;;2089307;28;20025;-71
2021/10/31 04:00:14;;;;;;;71.65;50.50;;;10.10;97.20;;;;;;2089885;28;20779;-71
2021/10/31 04:01:15;;;;;;;74.85;52.38;;;10.10;97.50;;;;;;2088676;28;20531;-70
2021/10/31 04:02:16;;;;;;;77.25;53.45;;;10.10;97.10;;;;;;2080934;28;20085;-70
2021/10/31 04:03:17;;;;;;;75.93;52.85;;;10.10;97.10;;;;;;2088989;28;20454;-71
2021/10/31 04:04:17;;;;;;;77.35;52.92;;;10.10;97.10;;;;;;2089567;28;20052;-71
2021/10/31 04:05:18;;;;;;;72.95;50.92;;;10.20;97.10;;;;;;2089564;28;20116;-71
2021/10/31 04:06:18;;;;;;;66.70;48.70;;;10.20;97.10;;;;;;2089687;28;20036;-71
2021/10/31 04:07:19;;;;;;;76.47;53.65;;;10.20;97.20;;;;;;2089666;28;20040;-70
2021/10/31 04:08:19;;;;;;;73.47;51.72;;;10.20;97.20;;;;;;2089590;28;20060;-71
2021/10/31 04:09:20;;;;;;;74.28;52.85;;;10.20;97.20;;;;;;2089207;28;20040;-71
2021/10/31 04:10:21;;;;;;;76.07;52.47;;;10.20;97.20;;;;;;2089550;28;20079;-71
2021/10/31 04:11:22;;;;;;;74.32;52.03;;;10.20;97.10;;;;;;2088691;28;20083;-71
2021/10/31 04:12:23;;;;;;;74.60;52.40;;;10.20;97.20;;;;;;2080694;28;20037;-71
2021/10/31 04:13:23;;;;;;;76.43;52.22;;;10.20;97.50;;;;;;2089056;28;20029;-71
2021/10/31 04:14:24;;;;;;;73.45;51.88;;;10.20;97.20;;;;;;2089612;28;20116;-71
2021/10/31 04:15:26;;;;;;;73.93;52.55;;;10.20;97.20;;;;;;2089460;28;20556;-71
2021/10/31 04:16:27;;;;;;;73.68;51.28;;;10.20;97.20;;;;;;2089542;28;20460;-71
2021/10/31 04:17:27;;;;;;;73.55;52.50;;;10.10;97.10;;;;;;2088852;28;20059;-70
2021/10/31 04:18:28;;;;;;;75.07;52.13;;;10.20;97.30;;;;;;2088925;28;20414;-71
2021/10/31 04:19:28;;;;;;;73.05;52.30;;;10.20;97.20;;;;;;2089100;28;20527;-71
2021/10/31 04:20:29;;;;;;;71.75;51.97;;;10.20;97.10;;;;;;2089605;28;20507;-71
2021/10/31 04:21:30;;;;;;;75.68;53.13;;;10.20;97.10;;;;;;2089042;28;20025;-70
2021/10/31 04:22:30;;;;;;;73.35;51.88;;;10.20;97.10;;;;;;2089659;28;20941;-71
2021/10/31 04:23:31;;;;;;;68.88;48.78;;;10.20;97.20;;;;;;2089610;28;20062;-71
2021/10/31 04:24:33;;;;;;;69.32;49.30;;;10.20;97.20;;;;;;2088955;28;20063;-71
2021/10/31 04:25:33;;;;;;;73.32;51.75;;;10.20;97.20;;;;;;2088975;28;20605;-71
2021/10/31 04:26:34;;;;;;;73.88;52.13;;;10.20;97.10;;;;;;2089504;28;20021;-71
2021/10/31 04:27:35;;;;;;;71.82;49.50;;;10.20;97.10;;;;;;2089614;28;20033;-71
2021/10/31 04:28:35;;;;;;;71.68;51.22;;;10.20;97.20;;;;;;2088997;28;20029;-71
2021/10/31 04:29:36;;;;;;;70.93;51.00;;;10.20;97.20;;;;;;2088493;28;20032;-71
2021/10/31 04:30:37;;;;;;;70.93;50.33;;;10.20;97.20;;;;;;2089303;28;20481;-71
2021/10/31 04:31:39;;;;;;;71.63;51.22;;;10.20;97.20;;;;;;2089171;28;20017;-71
2021/10/31 04:32:40;;;;;;;73.90;51.40;;;10.20;97.20;;;;;;2088782;28;20055;-72
2021/10/31 04:33:41;;;;;;;76.25;52.22;;;10.20;97.10;;;;;;2088860;28;20029;-71
2021/10/31 04:34:42;;;;;;;76.22;52.50;;;10.20;97.10;;;;;;2089445;28;20037;-71
2021/10/31 04:35:42;;;;;;;76.05;53.20;;;10.20;97.20;;;;;;2089303;28;20021;-71
2021/10/31 04:36:44;;;;;;;69.50;50.33;;;10.20;97.20;;;;;;2089439;28;20044;-71
2021/10/31 04:37:45;;;;;;;75.00;53.20;;;10.20;97.20;;;;;;2089356;28;20075;-71
2021/10/31 04:38:52;;;;;;;72.78;51.28;;;10.20;97.20;;;;;;2089332;28;20017;-72
2021/10/31 04:39:57;;;;;;;70.97;48.95;;;10.10;97.20;;;;;;2088895;28;20127;-70
2021/10/31 04:40:59;;;;;;;69.63;50.05;;;10.20;97.40;;;;;;2089419;28;20021;-71
2021/10/31 04:42:06;;;;;;;72.90;49.72;;;10.20;97.40;;;;;;2088846;28;20048;-72
2021/10/31 04:43:11;;;;;;;71.80;50.45;;;10.20;97.40;;;;;;2089429;28;20033;-71
2021/10/31 04:44:13;;;;;;;75.70;52.35;;;10.20;97.30;;;;;;2089471;28;20154;-71
2021/10/31 04:45:14;;;;;;;71.85;51.53;;;10.20;97.40;;;;;;2089252;28;20029;-71
2021/10/31 04:46:14;;;;;;;77.40;53.20;;;10.20;97.10;;;;;;2089390;28;20026;-71
2021/10/31 04:47:15;;;;;;;73.40;50.88;;;10.20;97.20;;;;;;2089312;28;20034;-71
2021/10/31 04:48:16;;;;;;;76.10;53.08;;;10.20;97.30;;;;;;2088637;28;20024;-71
2021/10/31 04:49:16;;;;;;;76.13;52.92;;;10.20;97.20;;;;;;2088395;28;20079;-71
2021/10/31 04:50:17;;;;;;;77.85;52.92;;;10.20;97.20;;;;;;2088837;28;20033;-71
2021/10/31 04:51:18;;;;;;;75.80;52.65;;;10.20;97.20;;;;;;2088621;28;20370;-71
2021/10/31 04:52:18;;;;;;;71.85;50.17;;;10.20;97.30;;;;;;2089521;28;20045;-71
2021/10/31 04:53:19;;;;;;;74.78;51.35;;;10.20;97.30;;;;;;2089293;28;20041;-71
2021/10/31 04:54:20;;;;;;;74.88;52.60;;;10.20;97.30;;;;;;2089366;28;20036;-71
2021/10/31 04:55:21;;;;;;;74.47;52.40;;;10.20;97.30;;;;;;2088706;28;20482;-71
2021/10/31 04:56:23;;;;;;;76.80;53.90;;;10.20;97.30;;;;;;2088747;28;20057;-71
2021/10/31 04:57:23;;;;;;;74.85;52.55;;;10.20;97.30;;;;;;2089310;28;20045;-71
2021/10/31 04:58:24;;;;;;;70.60;50.75;;;10.20;97.30;;;;;;2088377;28;20036;-71
2021/10/31 04:59:25;;;;;;;75.05;52.50;;;10.20;97.40;;;;;;2087813;28;20124;-71
2021/10/31 05:00:26;;;;;;;72.40;51.15;;;10.20;97.40;;;;;;2088707;28;20040;-71
2021/10/31 05:01:26;;;;;;;73.55;52.13;;;10.10;97.40;;;;;;2088872;28;20024;-71
2021/10/31 05:02:29;;;;;;;74.47;53.15;;;10.10;97.40;;;;;;2089242;28;20108;-71
2021/10/31 05:03:30;;;;;;;75.50;52.30;;;10.10;97.40;;;;;;2089176;28;20040;-72
2021/10/31 05:04:31;;;;;;;74.50;52.97;;;10.10;97.40;;;;;;2089227;28;20024;-72
2021/10/31 05:05:32;;;;;;;73.30;51.67;;;10.10;97.60;;;;;;2088829;28;20362;-71
2021/10/31 05:06:33;;;;;;;78.43;54.47;;;10.20;97.50;;;;;;2089198;28;20119;-71
2021/10/31 05:07:34;;;;;;;74.93;54.00;;;10.20;97.50;;;;;;2089157;28;20146;-71
2021/10/31 05:08:34;;;;;;;73.57;53.25;;;10.10;97.30;;;;;;2089070;28;20808;-71
2021/10/31 05:09:35;;;;;;;78.05;54.65;;;10.20;97.30;;;;;;2088727;28;20057;-71
2021/10/31 05:10:35;;;;;;;75.10;53.13;;;10.20;97.40;;;;;;2089175;28;20028;-71
2021/10/31 05:11:36;;;;;;;74.78;52.88;;;10.20;97.50;;;;;;2088778;28;20376;-72
2021/10/31 05:12:36;;;;;;;71.50;51.22;;;10.10;97.50;;;;;;2089164;28;20055;-71
2021/10/31 05:13:37;;;;;;;76.55;54.00;;;10.20;97.60;;;;;;2088978;28;20021;-72
2021/10/31 05:14:38;;;;;;;71.88;51.55;;;10.20;97.50;;;;;;2088483;28;20029;-72
2021/10/31 05:15:39;;;;;;;73.70;53.55;;;10.10;97.50;;;;;;2088509;28;20052;-71
2021/10/31 05:16:40;;;;;;;76.50;53.05;;;10.10;97.30;;;;;;2089116;28;20103;-71
2021/10/31 05:17:41;;;;;;;76.57;52.20;;;10.10;97.40;;;;;;2089628;28;20029;-71
2021/10/31 05:18:42;;;;;;;75.03;53.38;;;10.10;97.40;;;;;;2089696;28;20037;-71
2021/10/31 05:19:42;;;;;;;77.20;53.85;;;10.10;97.60;;;;;;2088999;28;20433;-71
2021/10/31 05:20:43;;;;;;;76.07;52.42;;;10.10;97.70;;;;;;2089208;28;20717;-71
2021/10/31 05:21:46;;;;;;;75.10;52.03;;;10.10;97.70;;;;;;2080386;28;20116;-71
2021/10/31 05:22:47;;;;;;;71.32;51.15;;;10.10;97.80;;;;;;2072510;28;20026;-72
2021/10/31 05:23:48;;;;;;;79.90;54.75;;;10.10;97.80;;;;;;2080140;28;20099;-72
2021/10/31 05:24:49;;;;;;;72.07;51.22;;;10.10;97.80;;;;;;2089751;28;20021;-72
2021/10/31 05:25:50;;;;;;;71.18;51.63;;;10.10;97.90;;;;;;2089361;28;20041;-76